Time;durP1;ratioP1;P1;durP2;ratioP2;P2;SDS_P1;SDS_P2;PMS_P1;PMS_P2;Temp;Humidity;BMP_temperature;BMP_pressure;BME280_temperature;BME280_humidity;BME280_pressure;Samples;Min_cycle;Max_cycle;Signal;HPM_P1;HPM_P2
2022/04/23 00:00:26;;;;;;;0.38;0.38;;;;;;;;;;5069647;28;20023;-59
2022/04/23 00:02:52;;;;;;;1.15;1.15;;;;;;;;;;5070249;28;20047;-58
2022/04/23 00:05:17;;;;;;;1.77;1.65;;;;;;;;;;5070747;28;20120;-59
2022/04/23 00:07:42;;;;;;;1.05;1.05;;;;;;;;;;5071520;28;20020;-58
2022/04/23 00:10:08;;;;;;;1.58;1.48;;;;;;;;;;5070695;28;20428;-57
2022/04/23 00:12:34;;;;;;;2.00;1.73;;;;;;;;;;5070293;28;20027;-59
2022/04/23 00:14:59;;;;;;;1.52;1.17;;;;;;;;;;5070657;28;20032;-59
2022/04/23 00:17:24;;;;;;;1.35;1.23;;;;;;;;;;5070661;28;20473;-56
2022/04/23 00:19:49;;;;;;;3.67;1.52;;;;;;;;;;5070265;28;20028;-56
2022/04/23 00:22:18;;;;;;;3.88;2.63;;;;;;;;;;5070780;28;20365;-59
2022/04/23 00:24:43;;;;;;;0.28;0.17;;;;;;;;;;5070069;28;20025;-58
2022/04/23 00:27:09;;;;;;;5.40;3.20;;;;;;;;;;5069401;28;20059;-59
2022/04/23 00:29:35;;;;;;;3.65;1.65;;;;;;;;;;5069898;28;20024;-58
2022/04/23 00:32:01;;;;;;;1.00;1.00;;;;;;;;;;5070374;28;20019;-59
2022/04/23 00:34:26;;;;;;;0.90;0.90;;;;;;;;;;5070671;28;20373;-59
2022/04/23 00:36:51;;;;;;;7.47;2.25;;;;;;;;;;5068678;28;20033;-58
2022/04/23 00:39:16;;;;;;;0.43;0.43;;;;;;;;;;5071156;28;20468;-58
2022/04/23 00:41:48;;;;;;;0.00;0.00;;;;;;;;;;5070085;28;20027;-60
2022/04/23 00:44:16;;;;;;;2.72;2.63;;;;;;;;;;5069904;28;20119;-60
2022/04/23 00:46:42;;;;;;;0.47;0.47;;;;;;;;;;5070575;28;20013;-60
2022/04/23 00:49:07;;;;;;;0.00;0.00;;;;;;;;;;5070300;28;20469;-59
2022/04/23 00:51:33;;;;;;;0.73;0.73;;;;;;;;;;5070015;28;20021;-58
2022/04/23 00:53:59;;;;;;;1.27;1.15;;;;;;;;;;5068263;28;20525;-59
2022/04/23 00:56:25;;;;;;;0.22;0.22;;;;;;;;;;5069795;28;20025;-58
2022/04/23 00:58:50;;;;;;;0.52;0.52;;;;;;;;;;5069076;28;20515;-59
2022/04/23 01:01:15;;;;;;;0.10;0.05;;;;;;;;;;5069960;28;20078;-59
2022/04/23 01:03:42;;;;;;;3.95;0.20;;;;;;;;;;5069428;28;20020;-59
2022/04/23 01:06:10;;;;;;;0.43;0.20;;;;;;;;;;5069581;28;20038;-58
2022/04/23 01:08:36;;;;;;;0.40;0.40;;;;;;;;;;5069214;28;20484;-57
2022/04/23 01:11:01;;;;;;;0.32;0.32;;;;;;;;;;5070064;28;20021;-58
2022/04/23 01:13:27;;;;;;;0.00;0.00;;;;;;;;;;5068833;28;20453;-58
2022/04/23 01:16:03;;;;;;;0.60;0.60;;;;;;;;;;5069198;28;20037;-59
2022/04/23 01:18:28;;;;;;;0.00;0.00;;;;;;;;;;5069502;28;20031;-58
2022/04/23 01:20:54;;;;;;;0.47;0.47;;;;;;;;;;5068719;28;20028;-59
2022/04/23 01:23:19;;;;;;;0.00;0.00;;;;;;;;;;5068504;28;20020;-58
2022/04/23 01:25:45;;;;;;;0.85;0.85;;;;;;;;;;5068864;28;20108;-60
2022/04/23 01:28:11;;;;;;;0.52;0.52;;;;;;;;;;5068845;28;20102;-59
2022/04/23 01:30:37;;;;;;;0.68;0.68;;;;;;;;;;5068602;28;20020;-58
2022/04/23 01:33:02;;;;;;;0.40;0.40;;;;;;;;;;5069315;28;20065;-58
2022/04/23 01:35:29;;;;;;;2.90;2.35;;;;;;;;;;5068955;28;20020;-59
2022/04/23 01:37:54;;;;;;;0.32;0.32;;;;;;;;;;5067626;28;20680;-60
2022/04/23 01:40:20;;;;;;;0.00;0.00;;;;;;;;;;5069085;28;20032;-58
2022/04/23 01:42:45;;;;;;;0.00;0.00;;;;;;;;;;5068520;28;20044;-58
2022/04/23 01:45:10;;;;;;;13.80;2.85;;;;;;;;;;5067368;28;20016;-58
2022/04/23 01:47:35;;;;;;;3.90;2.30;;;;;;;;;;5068866;28;20013;-61
2022/04/23 01:50:01;;;;;;;4.78;2.42;;;;;;;;;;5068418;28;20112;-59
2022/04/23 01:52:26;;;;;;;0.90;0.90;;;;;;;;;;5044217;28;20027;-59
2022/04/23 01:54:51;;;;;;;2.10;1.95;;;;;;;;;;5068495;28;20082;-58
2022/04/23 01:57:16;;;;;;;0.63;0.63;;;;;;;;;;5068586;28;20033;-59
2022/04/23 01:59:41;;;;;;;0.45;0.45;;;;;;;;;;5067951;28;20025;-60
2022/04/23 02:02:07;;;;;;;0.05;0.05;;;;;;;;;;5067785;28;20046;-59
2022/04/23 02:04:32;;;;;;;0.65;0.38;;;;;;;;;;5067455;28;20028;-59
2022/04/23 02:06:57;;;;;;;0.45;0.45;;;;;;;;;;5068258;28;20539;-58
2022/04/23 02:09:23;;;;;;;1.55;1.45;;;;;;;;;;5068749;28;20016;-59
2022/04/23 02:11:48;;;;;;;0.08;0.08;;;;;;;;;;5068334;28;20432;-58
2022/04/23 02:14:14;;;;;;;1.60;1.25;;;;;;;;;;5068544;28;20589;-58
2022/04/23 02:16:40;;;;;;;1.13;1.08;;;;;;;;;;5067936;28;20052;-58
2022/04/23 02:19:05;;;;;;;0.00;0.00;;;;;;;;;;5068587;28;20032;-60
2022/04/23 02:21:30;;;;;;;0.00;0.00;;;;;;;;;;5067250;28;20114;-59
2022/04/23 02:23:56;;;;;;;0.98;0.98;;;;;;;;;;5068182;28;20024;-58
2022/04/23 02:26:21;;;;;;;0.00;0.00;;;;;;;;;;5067532;28;20017;-59
2022/04/23 02:28:49;;;;;;;0.00;0.00;;;;;;;;;;5068964;28;20048;-58
2022/04/23 02:31:15;;;;;;;0.00;0.00;;;;;;;;;;5068372;28;20033;-58
2022/04/23 02:33:40;;;;;;;2.00;1.25;;;;;;;;;;5068110;28;20028;-59
2022/04/23 02:36:06;;;;;;;0.70;0.70;;;;;;;;;;5045882;28;20020;-59
2022/04/23 02:38:32;;;;;;;1.10;1.10;;;;;;;;;;5068687;28;21649;-59
2022/04/23 02:40:57;;;;;;;0.10;0.10;;;;;;;;;;5068796;28;20021;-59
2022/04/23 02:43:22;;;;;;;0.05;0.05;;;;;;;;;;5068016;28;20024;-58
2022/04/23 02:45:48;;;;;;;0.00;0.00;;;;;;;;;;5067881;28;20020;-61
2022/04/23 02:48:13;;;;;;;0.10;0.10;;;;;;;;;;5068054;28;20019;-60
2022/04/23 02:50:38;;;;;;;0.00;0.00;;;;;;;;;;5047375;28;20028;-60
2022/04/23 02:53:05;;;;;;;0.08;0.08;;;;;;;;;;5069373;28;20424;-59
2022/04/23 02:55:34;;;;;;;1.50;1.48;;;;;;;;;;5068918;28;20074;-58
2022/04/23 02:58:03;;;;;;;2.45;2.35;;;;;;;;;;5067551;28;20040;-58
2022/04/23 03:00:28;;;;;;;0.10;0.10;;;;;;;;;;5067440;28;20599;-58
2022/04/23 03:02:54;;;;;;;3.55;3.42;;;;;;;;;;5067718;28;20127;-59
2022/04/23 03:05:20;;;;;;;0.17;0.17;;;;;;;;;;5067872;28;20063;-59
2022/04/23 03:07:45;;;;;;;1.15;0.57;;;;;;;;;;5068626;28;20050;-58
2022/04/23 03:10:16;;;;;;;0.00;0.00;;;;;;;;;;5067952;28;20020;-59
2022/04/23 03:12:41;;;;;;;0.00;0.00;;;;;;;;;;5067623;28;20484;-59
2022/04/23 03:15:11;;;;;;;0.00;0.00;;;;;;;;;;5067787;28;20044;-59
2022/04/23 03:17:36;;;;;;;0.00;0.00;;;;;;;;;;5067238;28;20024;-58
2022/04/23 03:20:02;;;;;;;1.70;1.60;;;;;;;;;;5066998;28;20372;-57
2022/04/23 03:22:27;;;;;;;0.00;0.00;;;;;;;;;;5067953;28;20246;-59
2022/04/23 03:24:52;;;;;;;0.00;0.00;;;;;;;;;;5068082;28;20031;-58
2022/04/23 03:27:18;;;;;;;0.10;0.10;;;;;;;;;;5067775;28;20041;-58
2022/04/23 03:29:44;;;;;;;0.00;0.00;;;;;;;;;;5067106;28;20035;-58
2022/04/23 03:32:10;;;;;;;0.00;0.00;;;;;;;;;;5067946;28;20103;-59
2022/04/23 03:34:35;;;;;;;0.00;0.00;;;;;;;;;;5067885;28;20433;-59
2022/04/23 03:37:00;;;;;;;0.00;0.00;;;;;;;;;;5070598;28;20020;-59
2022/04/23 03:39:25;;;;;;;0.52;0.52;;;;;;;;;;5071549;28;20017;-59
2022/04/23 03:41:51;;;;;;;0.00;0.00;;;;;;;;;;5071050;28;20412;-58
2022/04/23 03:44:16;;;;;;;0.00;0.00;;;;;;;;;;5069485;28;20477;-58
2022/04/23 03:46:41;;;;;;;0.00;0.00;;;;;;;;;;5070797;28;20028;-58
2022/04/23 03:49:08;;;;;;;0.35;0.35;;;;;;;;;;5069753;28;20016;-59
2022/04/23 03:51:33;;;;;;;0.00;0.00;;;;;;;;;;5071002;28;20025;-60
2022/04/23 03:53:58;;;;;;;0.00;0.00;;;;;;;;;;5070603;28;20523;-59
2022/04/23 03:56:25;;;;;;;0.00;0.00;;;;;;;;;;5070458;28;20480;-59
2022/04/23 03:58:50;;;;;;;0.00;0.00;;;;;;;;;;5069853;28;20024;-58
2022/04/23 04:01:15;;;;;;;0.00;0.00;;;;;;;;;;5070806;28;20120;-59
2022/04/23 04:03:40;;;;;;;0.00;0.00;;;;;;;;;;5069694;28;20012;-58
2022/04/23 04:06:05;;;;;;;0.00;0.00;;;;;;;;;;5070425;28;20043;-59
2022/04/23 04:08:31;;;;;;;0.00;0.00;;;;;;;;;;5070289;28;20024;-59
2022/04/23 04:10:57;;;;;;;0.30;0.30;;;;;;;;;;5069965;28;20008;-59
2022/04/23 04:13:23;;;;;;;0.10;0.10;;;;;;;;;;5071296;28;20053;-60
2022/04/23 04:15:49;;;;;;;0.00;0.00;;;;;;;;;;5067863;28;20025;-58
2022/04/23 04:18:15;;;;;;;0.00;0.00;;;;;;;;;;5068703;28;20032;-58
2022/04/23 04:20:40;;;;;;;0.00;0.00;;;;;;;;;;5069530;28;20024;-59
2022/04/23 04:23:06;;;;;;;0.00;0.00;;;;;;;;;;5070259;28;20032;-59
2022/04/23 04:25:31;;;;;;;0.00;0.00;;;;;;;;;;5070017;28;20059;-59
2022/04/23 04:27:58;;;;;;;0.00;0.00;;;;;;;;;;5068425;28;20083;-59
2022/04/23 04:30:24;;;;;;;0.10;0.10;;;;;;;;;;5070175;28;20382;-59
2022/04/23 04:32:49;;;;;;;0.00;0.00;;;;;;;;;;5069655;28;20021;-59
2022/04/23 04:35:14;;;;;;;0.00;0.00;;;;;;;;;;5070263;28;20028;-59
2022/04/23 04:37:40;;;;;;;0.35;0.35;;;;;;;;;;5069560;28;20024;-60
2022/04/23 04:40:05;;;;;;;0.00;0.00;;;;;;;;;;5069444;28;20038;-58
2022/04/23 04:42:30;;;;;;;0.00;0.00;;;;;;;;;;5070721;28;20034;-59
2022/04/23 04:44:56;;;;;;;0.00;0.00;;;;;;;;;;5051794;28;20039;-58
2022/04/23 04:47:21;;;;;;;0.00;0.00;;;;;;;;;;5069505;28;20021;-59
2022/04/23 04:49:46;;;;;;;0.55;0.55;;;;;;;;;;5068904;28;20016;-59
2022/04/23 04:52:11;;;;;;;0.00;0.00;;;;;;;;;;5070946;28;20024;-60
2022/04/23 04:54:36;;;;;;;0.00;0.00;;;;;;;;;;5069423;28;20024;-60
2022/04/23 04:57:02;;;;;;;0.00;0.00;;;;;;;;;;5069116;28;20024;-58
2022/04/23 04:59:28;;;;;;;0.00;0.00;;;;;;;;;;5069090;28;20024;-57
2022/04/23 05:01:54;;;;;;;0.00;0.00;;;;;;;;;;5069005;28;20024;-57
2022/04/23 05:04:19;;;;;;;0.00;0.00;;;;;;;;;;5069566;28;20169;-57
2022/04/23 05:06:45;;;;;;;0.00;0.00;;;;;;;;;;5069125;28;20025;-59
2022/04/23 05:09:10;;;;;;;0.28;0.22;;;;;;;;;;5069821;28;20423;-58
2022/04/23 05:11:35;;;;;;;0.28;0.28;;;;;;;;;;5069170;28;20021;-58
2022/04/23 05:14:00;;;;;;;0.00;0.00;;;;;;;;;;5067258;28;20017;-59
2022/04/23 05:16:26;;;;;;;0.00;0.00;;;;;;;;;;5069607;28;20028;-61
2022/04/23 05:18:51;;;;;;;0.00;0.00;;;;;;;;;;5068647;28;20024;-61
2022/04/23 05:21:16;;;;;;;0.00;0.00;;;;;;;;;;5069250;28;20012;-63
2022/04/23 05:23:42;;;;;;;0.08;0.08;;;;;;;;;;5068821;28;20037;-61
2022/04/23 05:26:09;;;;;;;0.00;0.00;;;;;;;;;;5068497;28;20073;-59
2022/04/23 05:28:35;;;;;;;0.47;0.47;;;;;;;;;;5068730;28;20081;-59
2022/04/23 05:31:00;;;;;;;1.38;1.33;;;;;;;;;;5068493;28;20029;-58
2022/04/23 05:33:25;;;;;;;0.00;0.00;;;;;;;;;;5068365;28;20403;-60
2022/04/23 05:35:51;;;;;;;0.20;0.20;;;;;;;;;;5068341;28;20040;-58
2022/04/23 05:38:20;;;;;;;0.95;0.95;;;;;;;;;;5068213;28;20024;-60
2022/04/23 05:40:45;;;;;;;0.00;0.00;;;;;;;;;;5068104;28;20440;-60
2022/04/23 05:43:10;;;;;;;0.10;0.10;;;;;;;;;;5067328;28;20024;-61
2022/04/23 05:45:35;;;;;;;0.47;0.47;;;;;;;;;;5068289;28;20470;-60
2022/04/23 05:48:01;;;;;;;0.00;0.00;;;;;;;;;;5068207;28;20101;-62
2022/04/23 05:50:26;;;;;;;0.00;0.00;;;;;;;;;;5068491;28;20028;-62
2022/04/23 05:52:52;;;;;;;1.17;0.15;;;;;;;;;;5066511;28;20107;-58
2022/04/23 05:55:17;;;;;;;0.00;0.00;;;;;;;;;;5067857;28;20028;-59
2022/04/23 05:57:42;;;;;;;0.65;0.65;;;;;;;;;;5068706;28;20090;-59
2022/04/23 06:00:09;;;;;;;0.00;0.00;;;;;;;;;;5067704;28;20028;-59
2022/04/23 06:02:34;;;;;;;2.60;2.40;;;;;;;;;;5068438;28;20032;-59
2022/04/23 06:04:59;;;;;;;0.55;0.55;;;;;;;;;;5067541;28;20028;-59
2022/04/23 06:07:25;;;;;;;1.52;1.45;;;;;;;;;;5069248;28;20134;-59
2022/04/23 06:09:50;;;;;;;2.28;2.08;;;;;;;;;;5067846;28;20975;-59
2022/04/23 06:12:16;;;;;;;1.65;1.65;;;;;;;;;;5067157;28;20034;-60
2022/04/23 06:14:41;;;;;;;2.65;2.30;;;;;;;;;;5067719;28;20036;-58
2022/04/23 06:17:07;;;;;;;0.50;0.50;;;;;;;;;;5067967;28;20052;-59
2022/04/23 06:19:32;;;;;;;0.28;0.10;;;;;;;;;;5067882;28;20043;-58
2022/04/23 06:21:59;;;;;;;3.33;1.15;;;;;;;;;;5067454;28;20377;-59
2022/04/23 06:24:25;;;;;;;4.95;0.80;;;;;;;;;;5068082;28;20028;-59
2022/04/23 06:26:50;;;;;;;0.52;0.52;;;;;;;;;;5067315;28;20059;-59
2022/04/23 06:29:15;;;;;;;0.00;0.00;;;;;;;;;;5067916;28;20049;-59
2022/04/23 06:31:40;;;;;;;2.20;2.00;;;;;;;;;;5067613;28;20095;-59
2022/04/23 06:34:06;;;;;;;3.33;2.25;;;;;;;;;;5067516;28;20126;-57
2022/04/23 06:36:31;;;;;;;0.98;0.98;;;;;;;;;;5067678;28;20028;-58
2022/04/23 06:38:56;;;;;;;0.55;0.55;;;;;;;;;;5068042;28;20021;-59
2022/04/23 06:41:22;;;;;;;0.00;0.00;;;;;;;;;;5067377;28;20017;-57
2022/04/23 06:43:47;;;;;;;1.10;1.10;;;;;;;;;;5067205;28;20234;-57
2022/04/23 06:46:12;;;;;;;1.85;1.75;;;;;;;;;;5067557;28;20020;-57
2022/04/23 06:48:37;;;;;;;0.52;0.52;;;;;;;;;;5067622;28;20039;-58
2022/04/23 06:51:03;;;;;;;2.40;2.30;;;;;;;;;;5067410;28;20111;-58
2022/04/23 06:53:28;;;;;;;0.98;0.93;;;;;;;;;;5067471;28;20258;-57
2022/04/23 06:55:53;;;;;;;3.83;3.63;;;;;;;;;;5067255;28;20021;-57
2022/04/23 06:58:18;;;;;;;0.00;0.00;;;;;;;;;;5067903;28;20024;-57
2022/04/23 07:00:43;;;;;;;1.70;1.60;;;;;;;;;;5067731;28;20141;-59
2022/04/23 07:03:09;;;;;;;0.10;0.10;;;;;;;;;;5067375;28;20020;-58
2022/04/23 07:05:34;;;;;;;0.00;0.00;;;;;;;;;;5066328;28;20187;-59
2022/04/23 07:08:01;;;;;;;1.65;1.55;;;;;;;;;;5067425;28;20385;-58
2022/04/23 07:10:27;;;;;;;1.48;1.40;;;;;;;;;;5067199;28;20024;-58
2022/04/23 07:12:53;;;;;;;2.40;1.65;;;;;;;;;;5070473;28;20034;-58
2022/04/23 07:15:22;;;;;;;1.35;1.17;;;;;;;;;;5071673;28;20433;-59
2022/04/23 07:17:48;;;;;;;0.57;0.57;;;;;;;;;;5071421;28;20103;-59
2022/04/23 07:20:13;;;;;;;2.08;1.83;;;;;;;;;;5049496;28;20450;-59
2022/04/23 07:22:38;;;;;;;0.00;0.00;;;;;;;;;;5072652;28;20036;-58
2022/04/23 07:25:04;;;;;;;0.22;0.08;;;;;;;;;;5070904;28;20101;-59
2022/04/23 07:27:29;;;;;;;0.00;0.00;;;;;;;;;;5070262;28;20051;-59
2022/04/23 07:29:55;;;;;;;0.63;0.63;;;;;;;;;;5070987;28;20112;-59
2022/04/23 07:32:21;;;;;;;4.43;2.28;;;;;;;;;;5071366;28;20087;-61
2022/04/23 07:37:38;;;;;;;0.52;0.38;;;;;;;;;;5053976;28;20090;-60
2022/04/23 07:40:10;;;;;;;0.35;0.35;;;;;;;;;;5069095;28;20078;-60
2022/04/23 07:42:35;;;;;;;0.50;0.47;;;;;;;;;;5064584;28;20036;-59
2022/04/23 07:45:01;;;;;;;0.70;0.70;;;;;;;;;;5067171;28;20029;-59
2022/04/23 07:47:28;;;;;;;2.30;1.23;;;;;;;;;;5069193;28;20020;-59
2022/04/23 07:49:53;;;;;;;1.60;1.30;;;;;;;;;;5070356;28;20063;-59
2022/04/23 07:52:19;;;;;;;0.45;0.45;;;;;;;;;;5068171;28;20020;-60
2022/04/23 07:54:44;;;;;;;0.77;0.77;;;;;;;;;;5049458;28;20033;-60
2022/04/23 07:57:10;;;;;;;1.88;1.75;;;;;;;;;;5069894;28;20447;-60
2022/04/23 07:59:40;;;;;;;0.63;0.63;;;;;;;;;;5070018;28;20509;-60
2022/04/23 08:02:05;;;;;;;3.30;3.10;;;;;;;;;;5068213;28;20051;-58
2022/04/23 08:04:30;;;;;;;0.68;0.68;;;;;;;;;;5068915;28;20048;-59
2022/04/23 08:06:56;;;;;;;0.10;0.10;;;;;;;;;;5068777;28;20021;-59
2022/04/23 08:09:21;;;;;;;1.33;1.25;;;;;;;;;;5070066;28;20024;-58
2022/04/23 08:11:46;;;;;;;0.03;0.03;;;;;;;;;;5069234;28;20346;-60
2022/04/23 08:14:12;;;;;;;3.03;2.08;;;;;;;;;;5069802;28;20104;-59
2022/04/23 08:16:37;;;;;;;1.27;1.20;;;;;;;;;;5071331;28;20085;-60
2022/04/23 08:19:03;;;;;;;0.10;0.10;;;;;;;;;;5069464;28;20522;-59
2022/04/23 08:21:28;;;;;;;2.83;0.73;;;;;;;;;;5049044;28;20051;-59
2022/04/23 08:23:54;;;;;;;0.45;0.45;;;;;;;;;;5069535;28;20628;-59
2022/04/23 08:26:19;;;;;;;0.00;0.00;;;;;;;;;;5065589;28;20028;-59
2022/04/23 08:31:28;;;;;;;6.80;6.38;;;;;;;;;;5068759;28;20039;-59
2022/04/23 08:33:59;;;;;;;1.17;1.17;;;;;;;;;;5069090;28;20376;-60
2022/04/23 08:36:36;;;;;;;4.28;4.10;;;;;;;;;;5068847;28;20957;-60
2022/04/23 08:39:05;;;;;;;0.28;0.28;;;;;;;;;;5069471;28;20028;-60
2022/04/23 08:41:31;;;;;;;0.00;0.00;;;;;;;;;;5070600;28;20381;-59
2022/04/23 08:43:57;;;;;;;2.33;2.13;;;;;;;;;;5069187;28;20263;-59
2022/04/23 08:46:23;;;;;;;0.28;0.28;;;;;;;;;;5068349;28;20141;-68
2022/04/23 08:48:49;;;;;;;1.60;1.35;;;;;;;;;;5068892;28;20024;-65
2022/04/23 08:51:16;;;;;;;0.00;0.00;;;;;;;;;;5067866;28;20050;-64
2022/04/23 08:53:43;;;;;;;0.28;0.28;;;;;;;;;;5070766;28;20016;-67
2022/04/23 08:56:08;;;;;;;0.90;0.75;;;;;;;;;;5068489;28;20025;-64
2022/04/23 08:58:33;;;;;;;1.20;1.15;;;;;;;;;;5067481;28;20081;-65
2022/04/23 09:00:59;;;;;;;1.85;1.67;;;;;;;;;;5069121;28;20553;-66
2022/04/23 09:03:24;;;;;;;1.45;1.35;;;;;;;;;;5069369;28;20455;-66
2022/04/23 09:05:53;;;;;;;0.10;0.10;;;;;;;;;;5067901;28;20032;-66
2022/04/23 09:08:18;;;;;;;2.28;1.98;;;;;;;;;;5068550;28;20046;-66
2022/04/23 09:10:48;;;;;;;5.45;4.38;;;;;;;;;;5069162;28;20484;-67
2022/04/23 09:13:33;;;;;;;2.88;1.58;;;;;;;;;;5069292;28;20525;-65
2022/04/23 09:24:13;;;;;;;3.40;1.60;;;;;;;;;;5069298;28;20036;-66
2022/04/23 09:26:42;;;;;;;4.93;3.72;;;;;;;;;;5065313;28;20041;-65
2022/04/23 09:29:14;;;;;;;4.53;3.43;;;;;;;;;;5068479;28;20147;-65
2022/04/23 09:31:40;;;;;;;6.82;4.00;;;;;;;;;;5067211;28;20282;-66
2022/04/23 09:34:14;;;;;;;0.70;0.70;;;;;;;;;;5064740;28;20379;-67
2022/04/23 09:36:49;;;;;;;3.72;3.42;;;;;;;;;;5068264;28;20103;-65
2022/04/23 09:39:14;;;;;;;3.50;3.20;;;;;;;;;;5068019;28;20020;-66
2022/04/23 09:41:39;;;;;;;4.07;2.35;;;;;;;;;;5067792;28;20021;-65
2022/04/23 09:44:09;;;;;;;4.28;3.75;;;;;;;;;;5065601;28;20469;-66
2022/04/23 09:46:44;;;;;;;3.97;3.60;;;;;;;;;;5067181;28;20032;-66
2022/04/23 09:49:09;;;;;;;5.32;3.60;;;;;;;;;;5066316;28;20234;-66
2022/04/23 09:51:35;;;;;;;1.05;1.02;;;;;;;;;;5068222;28;20558;-65
2022/04/23 09:54:02;;;;;;;2.85;2.42;;;;;;;;;;5066871;28;20020;-66
2022/04/23 09:56:27;;;;;;;3.28;3.00;;;;;;;;;;5067445;28;20111;-66
2022/04/23 09:58:53;;;;;;;3.25;3.00;;;;;;;;;;5067395;28;20115;-66
2022/04/23 10:01:20;;;;;;;5.53;4.20;;;;;;;;;;5064987;28;20032;-64
2022/04/23 10:03:49;;;;;;;3.28;2.75;;;;;;;;;;5067025;28;20111;-65
2022/04/23 10:06:16;;;;;;;3.55;3.17;;;;;;;;;;5066706;28;20093;-65
2022/04/23 10:08:43;;;;;;;4.43;4.03;;;;;;;;;;5066909;28;20422;-69
2022/04/23 10:11:15;;;;;;;2.75;2.55;;;;;;;;;;5066727;28;21267;-68
2022/04/23 10:13:44;;;;;;;6.03;3.88;;;;;;;;;;5066682;28;20477;-68
2022/04/23 10:16:10;;;;;;;3.70;3.40;;;;;;;;;;5065147;28;20062;-67
2022/04/23 10:18:38;;;;;;;1.00;1.00;;;;;;;;;;5067001;28;20060;-67
2022/04/23 10:21:08;;;;;;;4.90;4.28;;;;;;;;;;5066834;28;20400;-67
2022/04/23 10:23:43;;;;;;;3.58;3.10;;;;;;;;;;5066872;28;20077;-67
2022/04/23 10:26:17;;;;;;;5.22;4.72;;;;;;;;;;5066519;28;20052;-64
2022/04/23 10:28:47;;;;;;;1.88;1.77;;;;;;;;;;5065924;28;20063;-65
2022/04/23 10:31:16;;;;;;;4.43;3.88;;;;;;;;;;5065664;28;20031;-67
2022/04/23 10:33:50;;;;;;;4.85;4.53;;;;;;;;;;5066781;28;20362;-67
2022/04/23 10:36:16;;;;;;;2.47;2.28;;;;;;;;;;5043509;28;20445;-68
2022/04/23 10:38:51;;;;;;;3.15;3.00;;;;;;;;;;5066456;28;20026;-67
2022/04/23 10:41:16;;;;;;;9.75;5.28;;;;;;;;;;5067184;28;20055;-68
2022/04/23 10:43:49;;;;;;;2.97;2.65;;;;;;;;;;5067288;28;20044;-68
2022/04/23 10:46:34;;;;;;;0.25;0.25;;;;;;;;;;5068648;28;20028;-68
2022/04/23 10:49:15;;;;;;;4.90;4.50;;;;;;;;;;5071283;28;20067;-65
2022/04/23 10:51:43;;;;;;;6.63;4.32;;;;;;;;;;5070142;28;20029;-65
2022/04/23 10:54:08;;;;;;;6.43;5.57;;;;;;;;;;5068626;28;20034;-62
2022/04/23 10:56:34;;;;;;;8.55;6.72;;;;;;;;;;5072470;28;20020;-63
2022/04/23 10:58:59;;;;;;;1.65;1.50;;;;;;;;;;5070721;28;20021;-64
2022/04/23 11:01:31;;;;;;;6.43;5.93;;;;;;;;;;5074194;28;20104;-64
2022/04/23 11:03:56;;;;;;;4.00;3.63;;;;;;;;;;5071559;28;20009;-63
2022/04/23 11:12:22;;;;;;;4.85;1.58;;;;;;;;;;5070773;28;20112;-64
2022/04/23 11:14:51;;;;;;;3.38;3.08;;;;;;;;;;5071577;28;20028;-65
2022/04/23 11:17:21;;;;;;;0.85;0.85;;;;;;;;;;5071507;28;20028;-65
2022/04/23 11:19:53;;;;;;;2.38;2.28;;;;;;;;;;5070456;28;20013;-64
2022/04/23 11:22:22;;;;;;;3.22;2.83;;;;;;;;;;5070594;28;20017;-64
2022/04/23 11:24:48;;;;;;;4.40;4.00;;;;;;;;;;5070611;28;20051;-64
2022/04/23 11:27:26;;;;;;;5.22;4.70;;;;;;;;;;5071107;28;20444;-64
2022/04/23 11:29:52;;;;;;;6.60;6.13;;;;;;;;;;5069608;28;20028;-64
2022/04/23 11:32:23;;;;;;;7.97;4.68;;;;;;;;;;5071343;28;20070;-64
2022/04/23 11:35:15;;;;;;;5.80;5.28;;;;;;;;;;5071506;28;20064;-65
2022/04/23 11:37:40;;;;;;;8.85;7.03;;;;;;;;;;5067207;28;20116;-65
2022/04/23 11:40:16;;;;;;;5.40;4.88;;;;;;;;;;5071172;28;20516;-65
2022/04/23 11:42:45;;;;;;;3.92;2.35;;;;;;;;;;5071118;28;20020;-64
2022/04/23 11:45:12;;;;;;;5.95;5.30;;;;;;;;;;5070102;28;20524;-65
2022/04/23 11:47:38;;;;;;;8.23;7.53;;;;;;;;;;5070925;28;20028;-64
2022/04/23 11:50:13;;;;;;;4.40;4.05;;;;;;;;;;5069979;28;20024;-63
2022/04/23 11:52:38;;;;;;;5.20;4.68;;;;;;;;;;5069616;28;20415;-63
2022/04/23 11:55:04;;;;;;;5.90;3.72;;;;;;;;;;5071065;28;20074;-63
2022/04/23 11:57:29;;;;;;;11.18;7.95;;;;;;;;;;5069942;28;20020;-63
2022/04/23 11:59:59;;;;;;;7.30;3.92;;;;;;;;;;5071028;28;20078;-63
2022/04/23 12:02:28;;;;;;;8.40;7.60;;;;;;;;;;5070143;28;20096;-63
2022/04/23 12:04:55;;;;;;;15.52;7.95;;;;;;;;;;5068739;28;20028;-64
2022/04/23 12:07:21;;;;;;;8.25;7.22;;;;;;;;;;5070668;28;20028;-63
2022/04/23 12:09:56;;;;;;;6.07;5.45;;;;;;;;;;5070594;28;20501;-63
2022/04/23 12:12:21;;;;;;;3.15;2.78;;;;;;;;;;5069745;28;20091;-63
2022/04/23 12:14:47;;;;;;;2.50;2.33;;;;;;;;;;5069401;28;20115;-64
2022/04/23 12:17:22;;;;;;;6.03;4.85;;;;;;;;;;5070524;28;20020;-64
2022/04/23 12:19:48;;;;;;;2.08;1.80;;;;;;;;;;5071009;28;20020;-63
2022/04/23 12:22:26;;;;;;;7.60;6.57;;;;;;;;;;5068385;28;20488;-67
2022/04/23 12:24:52;;;;;;;2.90;1.98;;;;;;;;;;5069709;28;20033;-67
2022/04/23 12:27:17;;;;;;;11.43;7.75;;;;;;;;;;5068952;28;20048;-67
2022/04/23 12:40:53;;;;;;;2.92;2.10;;;;;;;;;;5070222;28;20032;-65
2022/04/23 12:43:22;;;;;;;4.18;3.83;;;;;;;;;;5070218;28;20032;-66
2022/04/23 12:45:48;;;;;;;7.05;6.38;;;;;;;;;;5071428;28;20024;-66
2022/04/23 12:48:14;;;;;;;4.22;3.88;;;;;;;;;;5069608;28;20055;-65
2022/04/23 12:50:39;;;;;;;6.07;3.63;;;;;;;;;;5069869;28;20111;-65
2022/04/23 12:53:05;;;;;;;3.60;2.88;;;;;;;;;;5069255;28;20067;-65
2022/04/23 12:55:32;;;;;;;0.20;0.20;;;;;;;;;;5069024;28;20021;-65
2022/04/23 12:58:00;;;;;;;5.30;4.90;;;;;;;;;;5070604;28;20131;-64
2022/04/23 13:00:26;;;;;;;5.32;4.85;;;;;;;;;;5070940;28;20500;-64
2022/04/23 13:02:55;;;;;;;3.28;1.73;;;;;;;;;;5070019;28;20044;-65
2022/04/23 13:05:21;;;;;;;3.83;3.50;;;;;;;;;;5049735;28;20021;-65
2022/04/23 13:10:30;;;;;;;3.35;2.97;;;;;;;;;;5068363;28;20468;-65
2022/04/23 13:12:56;;;;;;;4.38;3.95;;;;;;;;;;5070547;28;20056;-66
2022/04/23 13:15:22;;;;;;;0.50;0.50;;;;;;;;;;5069339;28;20024;-64
2022/04/23 13:17:48;;;;;;;4.50;4.13;;;;;;;;;;5069729;28;20367;-65
2022/04/23 13:20:14;;;;;;;0.20;0.20;;;;;;;;;;5069434;28;20078;-65
2022/04/23 13:22:43;;;;;;;2.92;2.45;;;;;;;;;;5069184;28;20381;-65
2022/04/23 13:25:09;;;;;;;4.25;3.40;;;;;;;;;;5070157;28;20028;-66
2022/04/23 13:27:34;;;;;;;3.22;3.03;;;;;;;;;;5069479;28;20493;-65
2022/04/23 13:30:00;;;;;;;5.05;3.60;;;;;;;;;;5065589;28;20024;-65
2022/04/23 13:32:25;;;;;;;4.78;2.50;;;;;;;;;;5066711;28;20033;-65
2022/04/23 13:34:50;;;;;;;5.47;5.10;;;;;;;;;;5066977;28;20365;-65
2022/04/23 13:37:16;;;;;;;6.53;4.25;;;;;;;;;;5062837;28;20381;-65
2022/04/23 13:39:41;;;;;;;2.45;2.25;;;;;;;;;;5068440;28;20025;-66
2022/04/23 13:42:07;;;;;;;4.88;4.47;;;;;;;;;;5068812;28;20384;-65
2022/04/23 13:44:34;;;;;;;6.32;4.95;;;;;;;;;;5069292;28;20118;-65
2022/04/23 13:46:59;;;;;;;5.47;4.57;;;;;;;;;;5067405;28;20036;-64
2022/04/23 13:49:24;;;;;;;1.98;1.88;;;;;;;;;;5069140;28;20033;-65
2022/04/23 13:51:50;;;;;;;0.75;0.75;;;;;;;;;;5066740;28;20135;-65
2022/04/23 13:54:15;;;;;;;1.80;1.08;;;;;;;;;;5045234;28;20780;-65
2022/04/23 13:56:41;;;;;;;0.00;0.00;;;;;;;;;;5063550;28;20097;-65
2022/04/23 13:59:10;;;;;;;0.40;0.40;;;;;;;;;;5048917;28;20614;-66
2022/04/23 14:01:36;;;;;;;9.32;3.25;;;;;;;;;;5068503;28;20023;-65
2022/04/23 14:12:12;;;;;;;1.38;1.30;;;;;;;;;;5068399;28;20028;-65
2022/04/23 14:14:38;;;;;;;0.93;0.65;;;;;;;;;;5068175;28;20767;-65
2022/04/23 14:17:03;;;;;;;0.10;0.10;;;;;;;;;;5068320;28;20154;-66
2022/04/23 14:19:28;;;;;;;2.67;2.47;;;;;;;;;;5068213;28;20024;-65
2022/04/23 14:21:53;;;;;;;0.47;0.47;;;;;;;;;;5067768;28;20039;-66
2022/04/23 14:24:19;;;;;;;1.25;1.15;;;;;;;;;;5067747;28;20702;-65
2022/04/23 14:26:44;;;;;;;3.83;3.25;;;;;;;;;;5068538;28;20178;-65
2022/04/23 14:29:09;;;;;;;3.13;3.03;;;;;;;;;;5068075;28;20056;-65
2022/04/23 14:31:34;;;;;;;0.00;0.00;;;;;;;;;;5068177;28;20385;-66
2022/04/23 14:34:00;;;;;;;5.30;3.22;;;;;;;;;;5068055;28;20047;-65
2022/04/23 14:36:25;;;;;;;0.00;0.00;;;;;;;;;;5068453;28;20036;-65
2022/04/23 14:38:51;;;;;;;1.83;1.75;;;;;;;;;;5068348;28;20388;-65
2022/04/23 14:41:16;;;;;;;0.17;0.17;;;;;;;;;;5068818;28;20463;-65
2022/04/23 14:43:42;;;;;;;3.65;3.22;;;;;;;;;;5068367;28;20051;-65
2022/04/23 14:46:07;;;;;;;0.25;0.10;;;;;;;;;;5067432;28;20074;-65
2022/04/23 14:48:32;;;;;;;1.60;1.50;;;;;;;;;;5065838;28;20081;-66
2022/04/23 14:53:42;;;;;;;2.85;2.67;;;;;;;;;;5063970;28;20040;-63
2022/04/23 14:56:08;;;;;;;0.35;0.35;;;;;;;;;;5065002;28;20103;-64
2022/04/23 14:58:33;;;;;;;3.05;2.72;;;;;;;;;;5063225;28;20159;-64
2022/04/23 15:00:58;;;;;;;2.40;0.55;;;;;;;;;;5064238;28;20039;-64
2022/04/23 15:03:23;;;;;;;3.05;2.83;;;;;;;;;;5063765;28;20101;-65
2022/04/23 15:05:49;;;;;;;0.38;0.32;;;;;;;;;;5063313;28;20036;-65
2022/04/23 15:08:14;;;;;;;2.10;1.13;;;;;;;;;;5065282;28;20033;-65
2022/04/23 15:10:39;;;;;;;1.23;1.13;;;;;;;;;;5063108;28;20525;-64
2022/04/23 15:13:06;;;;;;;4.53;4.03;;;;;;;;;;5061390;28;20065;-65
2022/04/23 15:15:35;;;;;;;2.17;2.08;;;;;;;;;;5061677;28;20393;-64
2022/04/23 15:18:00;;;;;;;1.20;0.57;;;;;;;;;;5060567;28;20369;-64
2022/04/23 15:20:26;;;;;;;3.25;2.95;;;;;;;;;;5061311;28;20039;-63
2022/04/23 15:22:52;;;;;;;1.13;1.13;;;;;;;;;;5043859;28;20052;-63